createdAt,value
2022-09-05T00:03:23.440Z,2.63
2022-09-05T00:06:34.080Z,2.70
2022-09-05T00:10:05.924Z,2.50
2022-09-05T00:13:19.054Z,2.40
2022-09-05T00:17:00.654Z,2.27
2022-09-05T00:24:31.894Z,2.80
2022-09-05T00:24:37.606Z,2.50
2022-09-05T00:27:50.743Z,2.40
2022-09-05T00:31:53.720Z,2.87
2022-09-05T00:35:19.172Z,3.07
2022-09-05T00:38:36.526Z,2.70
2022-09-05T00:41:43.198Z,3.00
2022-09-05T00:44:56.555Z,2.67
2022-09-05T00:48:12.541Z,2.73
2022-09-05T00:51:34.501Z,2.90
2022-09-05T00:54:58.898Z,2.70
2022-09-05T00:58:34.802Z,2.53
2022-09-05T01:01:52.738Z,2.70
2022-09-05T01:05:04.916Z,2.70
2022-09-05T01:08:39.079Z,2.57
2022-09-05T01:12:02.298Z,2.70
2022-09-05T01:15:22.500Z,2.30
2022-09-05T01:18:48.371Z,2.70
2022-09-05T01:22:35.693Z,2.97
2022-09-05T01:26:01.062Z,2.33
2022-09-05T01:29:19.712Z,2.60
2022-09-05T01:32:39.140Z,2.70
2022-09-05T01:36:15.174Z,3.10
2022-09-05T01:40:11.689Z,2.80
2022-09-05T01:43:21.420Z,2.67
2022-09-05T01:46:41.149Z,2.87
2022-09-05T01:50:01.376Z,3.03
2022-09-05T01:53:28.849Z,3.03
2022-09-05T01:56:49.236Z,3.10
2022-09-05T02:00:05.370Z,3.00
2022-09-05T02:03:24.661Z,2.77
2022-09-05T02:06:46.187Z,2.90
2022-09-05T02:10:26.435Z,2.57
2022-09-05T02:13:53.531Z,3.20
2022-09-05T02:17:31.894Z,2.70
2022-09-05T02:20:49.499Z,2.73
2022-09-05T02:24:08.299Z,3.17
2022-09-05T02:27:43.563Z,2.93
2022-09-05T02:31:19.423Z,2.80
2022-09-05T02:34:35.481Z,3.23
2022-09-05T02:38:38.002Z,3.27
2022-09-05T02:45:15.039Z,3.20
2022-09-05T02:45:26.909Z,3.37
2022-09-05T02:48:49.649Z,2.47
2022-09-05T02:57:24.566Z,2.83
2022-09-05T02:57:46.684Z,3.33
2022-09-05T02:59:36.295Z,3.00
2022-09-05T03:03:14.064Z,3.07
2022-09-05T03:06:34.855Z,2.63
2022-09-05T03:10:01.623Z,2.77
2022-09-05T03:14:08.682Z,3.10
2022-09-05T03:18:20.319Z,2.90
2022-09-05T03:22:36.199Z,2.47
2022-09-05T03:26:37.619Z,3.40
2022-09-05T03:30:12.247Z,2.60
2022-09-05T03:33:55.329Z,2.67
2022-09-05T03:37:56.153Z,2.80
2022-09-05T03:41:19.199Z,3.33
2022-09-05T03:44:45.643Z,2.93
2022-09-05T03:48:27.842Z,2.70
2022-09-05T03:57:06.779Z,2.93
2022-09-05T03:57:28.411Z,2.87
2022-09-05T03:59:43.850Z,3.27
2022-09-05T04:08:11.496Z,2.53
2022-09-05T04:08:24.858Z,2.73
2022-09-05T04:10:13.202Z,3.00
2022-09-05T04:13:26.267Z,3.17
2022-09-05T04:16:43.860Z,2.80
2022-09-05T04:19:55.702Z,3.10
2022-09-05T04:23:18.990Z,3.10
2022-09-05T04:26:57.347Z,2.87
2022-09-05T04:30:38.020Z,2.90
2022-09-05T04:33:38.535Z,3.50
2022-09-05T04:36:47.037Z,3.43
2022-09-05T04:39:50.986Z,4.00
2022-09-05T04:42:54.818Z,3.67
2022-09-05T04:46:15.731Z,3.33
2022-09-05T04:49:28.719Z,2.87
2022-09-05T04:53:02.799Z,3.07
2022-09-05T04:56:17.972Z,3.23
2022-09-05T05:01:44.450Z,3.00
2022-09-05T05:06:15.941Z,3.23
2022-09-05T05:06:45.451Z,3.20
2022-09-05T05:10:31.753Z,3.40
2022-09-05T05:18:03.938Z,3.33
2022-09-05T05:18:12.191Z,2.77
2022-09-05T05:20:41.776Z,3.03
2022-09-05T05:23:53.495Z,3.37
2022-09-05T05:27:11.563Z,3.50
2022-09-05T05:30:29.375Z,3.13
2022-09-05T05:33:37.082Z,3.17
2022-09-05T05:36:51.654Z,3.33
2022-09-05T05:40:07.016Z,3.63
2022-09-05T05:43:22.638Z,3.37
2022-09-05T05:46:37.522Z,3.30
2022-09-05T05:49:59.024Z,3.13
2022-09-05T05:53:42.769Z,3.30
2022-09-05T05:57:23.440Z,3.23
2022-09-05T06:01:02.258Z,3.57
2022-09-05T06:04:57.296Z,3.47
2022-09-05T06:12:38.768Z,2.87
2022-09-05T06:14:55.798Z,3.30
2022-09-05T06:17:38.002Z,3.90
2022-09-05T06:22:10.593Z,3.30
2022-09-05T06:26:08.197Z,3.63
2022-09-05T06:29:38.385Z,3.97
2022-09-05T06:33:10.182Z,3.87
2022-09-05T06:36:33.718Z,4.10
2022-09-05T06:40:04.236Z,4.10
2022-09-05T06:43:28.363Z,4.20
2022-09-05T06:46:54.785Z,3.63
2022-09-05T06:50:26.941Z,4.10
2022-09-05T06:54:02.473Z,4.00
2022-09-05T06:57:50.060Z,3.70
2022-09-05T07:00:57.287Z,3.83
2022-09-05T07:05:14.672Z,3.90
2022-09-05T07:07:54.464Z,4.30
2022-09-05T07:11:15.611Z,3.97
2022-09-05T07:14:26.903Z,4.10
2022-09-05T07:18:09.529Z,3.90
2022-09-05T07:21:31.802Z,3.50
2022-09-05T07:24:54.815Z,4.10
2022-09-05T07:28:28.378Z,4.33
2022-09-05T07:31:38.106Z,3.77
2022-09-05T07:34:46.223Z,4.07
2022-09-05T07:38:04.144Z,4.23
2022-09-05T07:41:23.810Z,3.53
2022-09-05T07:44:32.880Z,4.20
2022-09-05T07:47:42.470Z,3.27
2022-09-05T07:56:54.388Z,3.60
2022-09-05T07:56:55.836Z,3.60
2022-09-05T07:57:51.674Z,4.07
2022-09-05T08:00:59.363Z,3.77
2022-09-05T08:04:05.779Z,3.60
2022-09-05T08:07:46.965Z,3.67
2022-09-05T08:11:24.389Z,4.13
2022-09-05T08:14:43.899Z,4.17
2022-09-05T08:18:11.083Z,4.00
2022-09-05T08:21:27.788Z,3.73
2022-09-05T08:24:41.542Z,4.13
2022-09-05T08:28:06.445Z,3.80
2022-09-05T08:31:20.597Z,4.00
2022-09-05T08:34:44.786Z,4.33
2022-09-05T08:37:52.358Z,4.20
2022-09-05T08:41:08.623Z,4.07
2022-09-05T08:46:40.018Z,3.77
2022-09-05T08:47:56.833Z,3.90
2022-09-05T08:51:25.559Z,3.60
2022-09-05T08:54:38.894Z,3.90
2022-09-05T08:58:27.859Z,3.73
2022-09-05T09:01:50.227Z,3.90
2022-09-05T09:05:15.142Z,3.63
2022-09-05T09:08:29.712Z,4.27
2022-09-05T09:11:40.151Z,4.13
2022-09-05T09:14:59.433Z,3.80
2022-09-05T09:18:15.256Z,3.73
2022-09-05T09:21:35.509Z,3.57
2022-09-05T09:24:47.012Z,4.03
2022-09-05T09:28:50.052Z,3.67
2022-09-05T09:32:09.640Z,4.20
2022-09-05T09:35:24.946Z,3.30
2022-09-05T09:38:47.321Z,4.00
2022-09-05T09:42:10.087Z,3.90
2022-09-05T09:46:11.683Z,3.83
2022-09-05T09:49:43.611Z,4.03
2022-09-05T09:53:39.359Z,3.60
2022-09-05T09:57:25.522Z,4.00
2022-09-05T10:00:51.391Z,3.77
2022-09-05T10:10:35.430Z,3.77
2022-09-05T10:10:44.578Z,3.97
2022-09-05T10:12:10.178Z,3.77
2022-09-05T10:15:32.448Z,3.77
2022-09-05T10:23:21.555Z,3.50
2022-09-05T10:27:04.479Z,3.83
2022-09-05T10:30:13.889Z,3.30
2022-09-05T10:35:17.844Z,3.60
2022-09-05T10:37:09.982Z,3.40
2022-09-05T10:40:20.804Z,3.60
2022-09-05T10:43:31.237Z,3.63
2022-09-05T10:46:51.526Z,3.70
2022-09-05T10:50:12.459Z,3.80
2022-09-05T10:53:45.136Z,3.40
2022-09-05T10:56:58.546Z,3.00
2022-09-05T11:02:19.266Z,3.70
2022-09-05T11:04:18.227Z,3.10
2022-09-05T11:07:37.128Z,3.27
2022-09-05T11:10:54.455Z,2.90
2022-09-05T11:14:00.938Z,3.03
2022-09-05T11:17:22.652Z,3.00
2022-09-05T11:20:56.230Z,2.53
2022-09-05T11:24:15.925Z,3.10
2022-09-05T11:27:31.572Z,3.07
2022-09-05T11:30:42.828Z,3.30
2022-09-05T11:39:48.899Z,2.90
2022-09-05T11:40:06.814Z,2.93
2022-09-05T11:42:53.954Z,2.60
2022-09-05T11:46:23.960Z,3.00
2022-09-05T11:50:16.362Z,3.17
2022-09-05T11:53:58.038Z,3.03
2022-09-05T11:57:35.190Z,2.50
2022-09-05T12:00:48.367Z,2.40
2022-09-05T12:04:27.746Z,3.30
2022-09-05T12:07:52.150Z,2.97
2022-09-05T12:11:14.606Z,3.10
2022-09-05T12:14:42.453Z,3.10
2022-09-05T12:18:19.342Z,3.43
2022-09-05T12:21:38.315Z,2.90
2022-09-05T12:25:25.611Z,3.33
2022-09-05T12:29:34.243Z,3.40
2022-09-05T12:36:06.730Z,2.83
2022-09-05T12:40:57.583Z,2.83
2022-09-05T12:41:42.042Z,3.20
2022-09-05T12:44:38.219Z,3.47
2022-09-05T12:46:50.296Z,3.83
2022-09-05T12:50:14.158Z,3.13
2022-09-05T12:53:21.643Z,3.00
2022-09-05T13:01:27.099Z,3.23
2022-09-05T13:03:06.302Z,3.23
2022-09-05T13:04:13.373Z,2.90
2022-09-05T13:07:21.223Z,3.57
2022-09-05T13:13:30.600Z,3.47
2022-09-05T13:14:53.191Z,3.27
2022-09-05T13:17:44.322Z,3.20
2022-09-05T13:21:07.755Z,2.90
2022-09-05T13:24:18.964Z,3.13
2022-09-05T13:27:30.131Z,3.13
2022-09-05T13:33:03.470Z,3.13
2022-09-05T13:38:05.480Z,3.40
2022-09-05T13:38:09.895Z,2.60
2022-09-05T13:41:26.967Z,3.60
2022-09-05T13:44:46.529Z,3.43
2022-09-05T13:48:28.410Z,3.60
2022-09-05T13:51:43.981Z,3.57
2022-09-05T13:54:55.636Z,3.53
2022-09-05T13:58:17.838Z,3.75
2022-09-05T14:01:58.691Z,4.10
2022-09-05T14:05:30.096Z,3.70
2022-09-05T14:12:37.261Z,3.83
2022-09-05T14:15:52.763Z,3.53
2022-09-05T14:19:15.983Z,3.50
2022-09-05T14:22:41.011Z,3.23
2022-09-05T14:25:54.068Z,3.53
2022-09-05T14:29:17.970Z,3.57
2022-09-05T14:37:40.566Z,3.60
2022-09-05T14:37:40.802Z,3.67
2022-09-05T14:41:06.979Z,3.93
2022-09-05T14:44:42.400Z,3.57
2022-09-05T14:48:19.851Z,3.50
2022-09-05T14:51:43.135Z,3.50
2022-09-05T15:02:45.617Z,3.43
2022-09-05T15:02:51.648Z,2.77
2022-09-05T15:05:41.882Z,2.87
2022-09-05T15:11:25.542Z,3.17
2022-09-05T15:12:31.251Z,3.30
2022-09-05T15:16:02.532Z,3.33
2022-09-05T15:19:11.630Z,3.83
2022-09-05T15:22:27.790Z,3.23
2022-09-05T15:25:33.512Z,3.67
2022-09-05T15:28:40.299Z,3.83
2022-09-05T15:31:44.154Z,3.60
2022-09-05T15:34:52.935Z,3.47
2022-09-05T15:37:56.551Z,3.63
2022-09-05T15:41:17.373Z,3.47
2022-09-05T15:44:27.323Z,3.30
2022-09-05T15:47:33.939Z,3.50
2022-09-05T15:50:46.011Z,3.83
2022-09-05T15:53:53.986Z,3.80
2022-09-05T15:57:03.248Z,2.83
2022-09-05T16:00:12.305Z,2.90
2022-09-05T16:06:10.724Z,3.20
2022-09-05T16:10:27.934Z,3.80
2022-09-05T16:10:58.092Z,3.60
2022-09-05T16:13:55.129Z,3.40
2022-09-05T16:23:16.610Z,3.87
2022-09-05T16:23:26.986Z,3.67
2022-09-05T16:24:14.923Z,3.83
2022-09-05T16:27:43.719Z,3.50
2022-09-05T16:30:50.412Z,4.47
2022-09-05T16:33:54.418Z,3.65
2022-09-05T16:37:08.957Z,3.90
2022-09-05T16:40:22.863Z,3.40
2022-09-05T16:43:31.094Z,3.70
2022-09-05T16:46:45.968Z,3.57
2022-09-05T16:50:01.534Z,3.50
2022-09-05T16:53:32.942Z,4.00
2022-09-05T16:56:44.517Z,3.73
2022-09-05T16:59:50.462Z,3.73
2022-09-05T17:03:08.091Z,3.60
2022-09-05T17:06:25.567Z,3.40
2022-09-05T17:09:41.278Z,3.60
2022-09-05T17:12:46.782Z,3.50
2022-09-05T17:15:53.238Z,3.70
2022-09-05T17:19:00.778Z,3.40
2022-09-05T17:24:49.341Z,3.50
2022-09-05T17:29:23.976Z,3.50
2022-09-05T17:33:18.384Z,3.53
2022-09-05T17:36:36.430Z,3.33
2022-09-05T17:39:56.714Z,3.30
2022-09-05T17:43:07.411Z,3.30
2022-09-05T17:46:25.136Z,3.63
2022-09-05T17:49:45.306Z,3.03
2022-09-05T17:53:25.005Z,3.37
2022-09-05T17:56:37.206Z,3.53
2022-09-05T17:59:40.887Z,3.23
2022-09-05T18:02:57.654Z,3.60
2022-09-05T18:06:04.855Z,3.43
2022-09-05T18:09:13.055Z,4.37
2022-09-05T18:13:13.191Z,6.43
2022-09-05T18:16:13.061Z,3.30
2022-09-05T18:20:00.311Z,3.33
2022-09-05T18:23:46.554Z,3.20
2022-09-05T18:27:11.418Z,3.40
2022-09-05T18:34:42.822Z,3.43
2022-09-05T18:37:54.428Z,3.50
2022-09-05T18:41:24.969Z,3.17
2022-09-05T18:44:36.734Z,2.93
2022-09-05T18:47:52.856Z,3.50
2022-09-05T18:51:13.025Z,3.07
2022-09-05T18:54:25.368Z,2.90
2022-09-05T18:57:38.068Z,3.00
2022-09-05T19:00:46.880Z,3.70
2022-09-05T19:03:54.592Z,3.10
2022-09-05T19:07:08.604Z,3.37
2022-09-05T19:10:34.821Z,3.07
2022-09-05T19:13:44.861Z,3.53
2022-09-05T19:16:50.863Z,2.87
2022-09-05T19:20:32.461Z,2.83
2022-09-05T19:23:47.805Z,2.77
2022-09-05T19:26:58.223Z,3.03
2022-09-05T19:36:47.092Z,3.00
2022-09-05T19:37:10.140Z,3.43
2022-09-05T19:37:29.437Z,3.60
2022-09-05T19:47:25.611Z,3.47
2022-09-05T19:47:39.307Z,3.30
2022-09-05T19:48:08.361Z,3.17
2022-09-05T19:51:17.249Z,2.93
2022-09-05T19:54:29.582Z,3.33
2022-09-05T19:57:34.666Z,3.10
2022-09-05T20:00:42.324Z,3.27
2022-09-05T20:03:55.094Z,2.97
2022-09-05T20:06:58.893Z,2.70
2022-09-05T20:10:05.198Z,3.53
2022-09-05T20:13:24.332Z,3.47
2022-09-05T20:16:32.187Z,3.07
2022-09-05T20:19:36.793Z,3.30
2022-09-05T20:22:50.414Z,3.27
2022-09-05T20:25:57.956Z,3.03
2022-09-05T20:29:09.178Z,2.80
2022-09-05T20:32:17.915Z,3.27
2022-09-05T20:42:24.829Z,3.10
2022-09-05T20:43:18.672Z,2.90
2022-09-05T20:43:21.186Z,2.70
2022-09-05T20:47:43.598Z,3.00
2022-09-05T20:54:07.604Z,2.83
2022-09-05T20:54:10.539Z,2.80
2022-09-05T20:56:32.577Z,2.77
2022-09-05T20:59:41.448Z,2.97
2022-09-05T21:02:56.014Z,3.30
2022-09-05T21:06:12.889Z,3.37
2022-09-05T21:09:24.743Z,3.27
2022-09-05T21:12:33.129Z,2.93
2022-09-05T21:15:52.948Z,2.63
2022-09-05T21:18:59.515Z,3.40
2022-09-05T21:22:06.279Z,3.20
2022-09-05T21:25:25.153Z,3.07
2022-09-05T21:28:44.298Z,3.30
2022-09-05T21:31:54.391Z,2.77
2022-09-05T21:35:01.011Z,3.13
2022-09-05T21:38:04.871Z,3.37
2022-09-05T21:41:09.626Z,2.93
2022-09-05T21:47:34.677Z,2.97
2022-09-05T21:47:52.228Z,3.27
2022-09-05T21:51:02.552Z,2.70
2022-09-05T21:59:14.249Z,2.83
2022-09-05T21:59:24.054Z,3.40
2022-09-05T22:01:02.440Z,3.30
2022-09-05T22:04:07.486Z,3.03
2022-09-05T22:07:30.520Z,3.20
2022-09-05T22:10:52.344Z,3.50
2022-09-05T22:13:59.015Z,3.60
2022-09-05T22:17:04.902Z,3.30
2022-09-05T22:20:10.657Z,3.60
2022-09-05T22:23:15.849Z,3.83
2022-09-05T22:26:22.581Z,3.00
2022-09-05T22:29:26.950Z,3.57
2022-09-05T22:32:34.769Z,3.33
2022-09-05T22:35:40.967Z,3.87
2022-09-05T22:38:47.651Z,3.87
2022-09-05T22:41:51.335Z,3.20
2022-09-05T22:44:55.021Z,3.20
2022-09-05T22:47:59.530Z,3.60
2022-09-05T22:51:03.287Z,3.50
2022-09-05T22:54:08.372Z,3.67
2022-09-05T22:57:12.051Z,3.60
2022-09-05T23:00:16.563Z,3.80
2022-09-05T23:03:20.528Z,3.80
2022-09-05T23:06:24.420Z,3.80
2022-09-05T23:09:30.523Z,3.57
2022-09-05T23:12:37.478Z,4.10
2022-09-05T23:15:59.259Z,3.70
2022-09-05T23:19:03.012Z,4.07
2022-09-05T23:22:06.911Z,4.13
2022-09-05T23:25:12.307Z,3.67
2022-09-05T23:28:16.018Z,4.00
2022-09-05T23:31:19.783Z,4.00
2022-09-05T23:34:23.771Z,3.90
2022-09-05T23:37:27.683Z,4.17
2022-09-05T23:40:32.748Z,3.83
2022-09-05T23:43:36.762Z,3.80
2022-09-05T23:46:40.601Z,4.07
2022-09-05T23:49:44.343Z,4.17
2022-09-05T23:52:49.493Z,4.10
2022-09-05T23:55:54.628Z,4.43
2022-09-05T23:58:58.430Z,4.43
